Time;durP1;ratioP1;P1;durP2;ratioP2;P2;SDS_P1;SDS_P2;PMS_P1;PMS_P2;Temp;Humidity;BMP_temperature;BMP_pressure;BME280_temperature;BME280_humidity;BME280_pressure;Samples;Min_cycle;Max_cycle;Signal;HPM_P1;HPM_P2
2022/01/23 00:00:31;;;;;;;5.78;2.50;;;;;;;;;;5027475;28;20240;-49
2022/01/23 00:03:02;;;;;;;3.85;2.85;;;;;;;;;;5035363;28;20192;-49
2022/01/23 00:05:34;;;;;;;3.25;2.80;;;;;;;;;;5040010;28;20211;-50
2022/01/23 00:08:00;;;;;;;4.55;2.80;;;;;;;;;;5042163;28;20191;-49
2022/01/23 00:10:27;;;;;;;2.88;2.40;;;;;;;;;;5039208;28;20179;-50
2022/01/23 00:13:06;;;;;;;3.10;2.70;;;;;;;;;;5039907;28;20507;-49
2022/01/23 00:18:30;;;;;;;2.65;2.22;;;;;;;;;;5034322;28;20207;-49
2022/01/23 00:20:56;;;;;;;2.97;2.17;;;;;;;;;;5041400;28;20614;-49
2022/01/23 00:23:33;;;;;;;3.25;1.90;;;;;;;;;;5055945;28;20195;-50
2022/01/23 00:31:30;;;;;;;2.78;2.05;;;;;;;;;;5038094;28;21108;-50
2022/01/23 00:33:56;;;;;;;3.08;2.55;;;;;;;;;;5030909;28;20207;-50
2022/01/23 00:36:23;;;;;;;2.70;2.30;;;;;;;;;;5055305;28;20265;-50
2022/01/23 00:38:49;;;;;;;2.92;2.47;;;;;;;;;;5056295;28;20202;-49
2022/01/23 00:41:15;;;;;;;2.58;2.15;;;;;;;;;;5037612;28;20219;-50
2022/01/23 00:43:43;;;;;;;2.50;2.30;;;;;;;;;;5046962;28;20684;-50
2022/01/23 00:51:24;;;;;;;2.20;1.98;;;;;;;;;;5024135;28;20313;-50
2022/01/23 00:53:50;;;;;;;3.63;2.15;;;;;;;;;;5034897;28;20207;-49
2022/01/23 00:56:15;;;;;;;2.30;2.05;;;;;;;;;;5041527;28;20188;-49
2022/01/23 00:58:41;;;;;;;2.67;2.30;;;;;;;;;;5029551;28;20211;-49
2022/01/23 01:01:07;;;;;;;3.38;2.25;;;;;;;;;;5036209;28;20199;-49
2022/01/23 01:03:33;;;;;;;2.20;2.00;;;;;;;;;;5047901;28;20192;-49
2022/01/23 01:06:00;;;;;;;2.25;2.00;;;;;;;;;;5040446;28;20218;-50
2022/01/23 01:08:26;;;;;;;2.50;2.03;;;;;;;;;;5031732;28;20450;-49
2022/01/23 01:11:24;;;;;;;2.60;2.10;;;;;;;;;;5034855;28;20238;-49
2022/01/23 01:14:36;;;;;;;2.50;1.88;;;;;;;;;;5041413;28;20215;-49
2022/01/23 01:30:32;;;;;;;2.65;2.08;;;;;;;;;;5014618;28;20234;-49
2022/01/23 01:33:12;;;;;;;2.15;1.88;;;;;;;;;;5032272;28;20207;-50
2022/01/23 01:35:44;;;;;;;2.13;1.92;;;;;;;;;;5043732;28;20186;-49
2022/01/23 01:38:11;;;;;;;1.70;1.60;;;;;;;;;;5035576;28;20217;-50
2022/01/23 01:40:37;;;;;;;2.42;2.08;;;;;;;;;;5029778;28;20179;-49
2022/01/23 01:43:03;;;;;;;1.70;1.60;;;;;;;;;;5032867;28;20434;-49
2022/01/23 01:45:30;;;;;;;1.90;1.70;;;;;;;;;;5054516;28;20721;-49
2022/01/23 01:47:59;;;;;;;1.92;1.60;;;;;;;;;;5041526;28;20499;-49
2022/01/23 01:50:25;;;;;;;2.75;1.83;;;;;;;;;;5034430;28;20795;-49
2022/01/23 01:52:51;;;;;;;2.08;1.88;;;;;;;;;;5054129;28;20198;-49
2022/01/23 01:55:24;;;;;;;2.33;1.80;;;;;;;;;;5039914;28;20206;-50
2022/01/23 01:57:52;;;;;;;1.85;1.60;;;;;;;;;;5029823;28;20163;-49
2022/01/23 02:00:40;;;;;;;1.58;1.48;;;;;;;;;;5039926;28;20206;-49
2022/01/23 02:08:27;;;;;;;1.95;1.70;;;;;;;;;;5051047;28;20282;-49
2022/01/23 02:10:56;;;;;;;1.58;1.48;;;;;;;;;;5042051;28;20175;-50
2022/01/23 02:13:36;;;;;;;1.65;1.50;;;;;;;;;;5040155;28;20238;-49
2022/01/23 02:24:47;;;;;;;1.92;1.52;;;;;;;;;;5042291;28;20301;-49
2022/01/23 02:52:07;;;;;;;1.60;1.35;;;;;;;;;;5022052;28;20206;-49
2022/01/23 02:54:53;;;;;;;1.40;1.30;;;;;;;;;;5034613;28;20249;-50
2022/01/23 02:57:37;;;;;;;1.73;1.42;;;;;;;;;;5040184;28;20202;-50
2022/01/23 03:00:11;;;;;;;1.40;1.30;;;;;;;;;;5033477;28;20182;-50
2022/01/23 03:02:43;;;;;;;1.60;1.40;;;;;;;;;;5037134;28;20191;-49
2022/01/23 03:05:12;;;;;;;1.48;1.38;;;;;;;;;;5021163;28;20270;-49
2022/01/23 03:07:55;;;;;;;1.55;1.40;;;;;;;;;;5026139;28;20559;-49
2022/01/23 03:10:28;;;;;;;1.35;1.25;;;;;;;;;;5040849;28;20217;-49
2022/01/23 03:13:37;;;;;;;1.33;1.10;;;;;;;;;;5026258;28;20455;-49
2022/01/23 03:31:32;;;;;;;1.20;1.10;;;;;;;;;;5037443;28;20272;-50
2022/01/23 03:33:58;;;;;;;1.15;1.05;;;;;;;;;;5042590;28;20626;-50
2022/01/23 03:36:24;;;;;;;1.33;1.20;;;;;;;;;;5037530;28;20251;-49
2022/01/23 03:38:51;;;;;;;1.38;1.20;;;;;;;;;;5030529;28;20555;-49
2022/01/23 03:41:17;;;;;;;1.48;1.33;;;;;;;;;;5026311;28;20211;-49
2022/01/23 03:43:43;;;;;;;1.10;1.08;;;;;;;;;;5032428;28;20188;-49
2022/01/23 03:51:14;;;;;;;1.50;1.40;;;;;;;;;;5029075;28;20195;-49
2022/01/23 03:53:41;;;;;;;1.52;0.98;;;;;;;;;;5056627;28;20207;-49
2022/01/23 03:56:07;;;;;;;1.40;1.30;;;;;;;;;;5038721;28;20184;-50
2022/01/23 03:58:34;;;;;;;1.05;1.05;;;;;;;;;;5035696;28;20271;-49
2022/01/23 04:01:00;;;;;;;0.98;0.95;;;;;;;;;;5028538;28;20204;-49
2022/01/23 04:03:26;;;;;;;1.20;1.10;;;;;;;;;;5046808;28;20200;-49
2022/01/23 04:05:52;;;;;;;1.17;1.08;;;;;;;;;;5037109;28;20546;-49
2022/01/23 04:08:20;;;;;;;1.35;1.23;;;;;;;;;;5038972;28;20180;-49
2022/01/23 04:10:46;;;;;;;1.30;1.20;;;;;;;;;;5034958;28;20168;-49
2022/01/23 04:13:24;;;;;;;1.17;1.10;;;;;;;;;;5026270;28;20579;-49
2022/01/23 04:16:23;;;;;;;1.15;1.05;;;;;;;;;;5042970;28;20265;-50
2022/01/23 04:32:24;;;;;;;1.13;1.00;;;;;;;;;;5034459;28;20257;-49
2022/01/23 04:34:57;;;;;;;1.73;1.15;;;;;;;;;;5032379;28;20179;-50
2022/01/23 04:45:40;;;;;;;1.35;1.20;;;;;;;;;;5017050;28;20594;-49
2022/01/23 05:04:27;;;;;;;1.60;1.30;;;;;;;;;;5028830;28;20279;-49
2022/01/23 05:07:09;;;;;;;1.92;1.13;;;;;;;;;;5024513;28;20623;-47
2022/01/23 05:09:35;;;;;;;4.18;1.58;;;;;;;;;;5040016;28;20218;-47
2022/01/23 05:12:02;;;;;;;5.40;1.95;;;;;;;;;;5039239;28;20183;-48
2022/01/23 05:14:35;;;;;;;4.28;1.65;;;;;;;;;;5034938;28;20176;-48
2022/01/23 05:17:02;;;;;;;4.65;1.70;;;;;;;;;;5040605;28;20198;-47
2022/01/23 05:19:28;;;;;;;6.53;1.77;;;;;;;;;;5046938;28;20188;-47
2022/01/23 05:24:25;;;;;;;5.30;2.28;;;;;;;;;;5034976;28;20176;-47
2022/01/23 05:26:57;;;;;;;7.57;2.60;;;;;;;;;;5051359;28;20211;-48
2022/01/23 05:29:24;;;;;;;19.70;6.40;;;;;;;;;;5047539;28;20214;-47
2022/01/23 05:31:51;;;;;;;65.63;15.63;;;;;;;;;;5034208;28;20573;-47
2022/01/23 05:34:17;;;;;;;48.45;11.85;;;;;;;;;;5034677;28;20609;-48
2022/01/23 05:36:43;;;;;;;46.92;12.43;;;;;;;;;;5029608;28;20180;-48
2022/01/23 05:39:09;;;;;;;40.38;11.85;;;;;;;;;;5015794;28;20244;-49
2022/01/23 05:41:35;;;;;;;34.13;9.43;;;;;;;;;;5033745;28;20650;-49
2022/01/23 05:44:02;;;;;;;40.05;10.82;;;;;;;;;;5029354;28;20211;-48
2022/01/23 05:46:28;;;;;;;31.98;9.10;;;;;;;;;;5034871;28;20184;-48
2022/01/23 05:48:54;;;;;;;26.55;8.32;;;;;;;;;;5041607;28;20487;-48
2022/01/23 05:51:20;;;;;;;30.27;8.63;;;;;;;;;;5054333;28;20282;-48
2022/01/23 05:53:47;;;;;;;24.67;7.60;;;;;;;;;;5040581;28;20583;-48
2022/01/23 05:56:12;;;;;;;31.23;8.60;;;;;;;;;;5032364;28;20211;-48
2022/01/23 05:58:38;;;;;;;22.02;7.25;;;;;;;;;;5029225;28;20176;-48
2022/01/23 06:01:05;;;;;;;23.48;7.78;;;;;;;;;;5033980;28;20187;-49
2022/01/23 06:03:31;;;;;;;23.48;7.05;;;;;;;;;;5034522;28;20186;-49
2022/01/23 06:05:57;;;;;;;22.30;7.22;;;;;;;;;;5046343;28;20187;-49
2022/01/23 06:08:25;;;;;;;22.83;6.55;;;;;;;;;;5050302;28;20201;-48
2022/01/23 06:10:55;;;;;;;23.38;6.60;;;;;;;;;;5028302;28;20184;-48
2022/01/23 06:13:21;;;;;;;20.90;6.80;;;;;;;;;;5021583;28;20191;-48
2022/01/23 06:15:48;;;;;;;20.30;6.45;;;;;;;;;;5014472;28;20172;-48
2022/01/23 06:18:14;;;;;;;18.38;6.50;;;;;;;;;;5044383;28;20198;-48
2022/01/23 06:20:39;;;;;;;17.73;6.63;;;;;;;;;;5054084;28;20171;-49
2022/01/23 06:23:05;;;;;;;18.15;6.22;;;;;;;;;;5053486;28;20191;-49
2022/01/23 06:25:34;;;;;;;16.25;5.82;;;;;;;;;;5034064;28;20164;-49
2022/01/23 06:28:00;;;;;;;17.58;6.32;;;;;;;;;;5025939;28;20267;-48
2022/01/23 06:30:26;;;;;;;26.15;7.70;;;;;;;;;;5027857;28;20185;-48
2022/01/23 06:32:52;;;;;;;54.00;14.55;;;;;;;;;;5030405;28;20253;-48
2022/01/23 06:35:18;;;;;;;56.63;16.63;;;;;;;;;;5034039;28;20681;-48
2022/01/23 06:37:44;;;;;;;53.80;16.25;;;;;;;;;;5033967;28;20274;-49
2022/01/23 06:40:10;;;;;;;66.10;17.90;;;;;;;;;;5034766;28;20547;-49
2022/01/23 06:42:36;;;;;;;48.97;14.85;;;;;;;;;;5053459;28;20175;-49
2022/01/23 06:45:02;;;;;;;60.05;15.77;;;;;;;;;;5036062;28;20566;-49
2022/01/23 06:47:28;;;;;;;48.75;14.65;;;;;;;;;;5014975;28;20804;-49
2022/01/23 06:49:54;;;;;;;53.15;14.27;;;;;;;;;;5013943;28;20164;-49
2022/01/23 06:52:20;;;;;;;41.83;14.48;;;;;;;;;;5028891;28;20645;-49
2022/01/23 06:54:47;;;;;;;44.00;12.82;;;;;;;;;;5027365;28;20215;-49
2022/01/23 06:57:13;;;;;;;44.10;13.00;;;;;;;;;;5033009;28;20187;-48
2022/01/23 06:59:39;;;;;;;42.90;13.15;;;;;;;;;;5033798;28;20180;-49
2022/01/23 07:02:05;;;;;;;49.30;13.63;;;;;;;;;;5034943;28;20211;-48
2022/01/23 07:04:45;;;;;;;40.70;12.15;;;;;;;;;;5084581;27;20863;-45
2022/01/23 07:07:11;;;;;;;39.47;11.57;;;;;;;;;;5071409;28;20304;-47
2022/01/23 07:09:37;;;;;;;40.00;10.95;;;;;;;;;;5071098;28;20206;-45
2022/01/23 07:12:03;;;;;;;35.05;10.70;;;;;;;;;;5070972;28;20224;-47
2022/01/23 07:14:28;;;;;;;30.65;9.77;;;;;;;;;;5070804;28;20179;-48
2022/01/23 07:16:54;;;;;;;29.27;9.82;;;;;;;;;;5070428;28;20261;-48
2022/01/23 07:19:20;;;;;;;27.67;8.73;;;;;;;;;;5070286;28;20193;-46
2022/01/23 07:21:47;;;;;;;26.17;8.85;;;;;;;;;;5071236;28;20224;-47
2022/01/23 07:24:13;;;;;;;23.15;8.48;;;;;;;;;;5070806;28;20205;-48
2022/01/23 07:26:39;;;;;;;25.45;8.02;;;;;;;;;;5070966;28;20171;-47
2022/01/23 07:29:06;;;;;;;25.25;8.48;;;;;;;;;;5070669;28;20485;-48
2022/01/23 07:34:00;;;;;;;23.38;8.18;;;;;;;;;;5070666;28;20171;-49
2022/01/23 07:36:26;;;;;;;18.98;6.65;;;;;;;;;;5070862;28;20453;-50
2022/01/23 07:38:52;;;;;;;18.85;7.07;;;;;;;;;;5070770;28;20293;-48
2022/01/23 07:41:18;;;;;;;18.33;7.32;;;;;;;;;;5070037;28;20461;-50
2022/01/23 07:43:43;;;;;;;15.30;6.65;;;;;;;;;;5070278;28;20217;-49
2022/01/23 07:46:09;;;;;;;14.65;5.90;;;;;;;;;;5070344;28;20265;-48
2022/01/23 07:48:35;;;;;;;20.80;6.53;;;;;;;;;;5070642;28;20625;-48
2022/01/23 07:51:01;;;;;;;22.35;6.93;;;;;;;;;;5070038;28;20231;-49
2022/01/23 07:53:27;;;;;;;16.67;5.70;;;;;;;;;;5070114;28;20194;-49
2022/01/23 07:55:53;;;;;;;12.48;5.13;;;;;;;;;;5069954;28;20769;-51
2022/01/23 07:58:19;;;;;;;14.43;5.22;;;;;;;;;;5070112;28;20183;-50
2022/01/23 08:00:47;;;;;;;13.10;5.15;;;;;;;;;;5069637;28;20892;-48
2022/01/23 08:03:13;;;;;;;15.98;5.35;;;;;;;;;;5069596;28;20214;-48
2022/01/23 08:05:39;;;;;;;12.85;4.90;;;;;;;;;;5069345;28;20182;-48
2022/01/23 08:08:05;;;;;;;14.20;5.45;;;;;;;;;;5063871;28;20190;-48
2022/01/23 08:10:30;;;;;;;18.88;5.85;;;;;;;;;;5069319;28;20178;-48
